createdAt,value
2023-10-25T00:00:10.168Z,4.55
2023-10-25T00:05:11.692Z,6.70
2023-10-25T00:10:13.132Z,3.97
2023-10-25T00:15:14.546Z,4.60
2023-10-25T00:20:15.944Z,5.15
2023-10-25T00:25:17.349Z,4.22
2023-10-25T00:30:18.830Z,7.22
2023-10-25T00:35:20.266Z,6.57
2023-10-25T00:40:21.698Z,8.32
2023-10-25T00:45:23.183Z,4.93
2023-10-25T00:50:24.559Z,5.38
2023-10-25T00:55:25.990Z,5.15
2023-10-25T01:00:28.129Z,7.30
2023-10-25T01:05:30.815Z,6.82
2023-10-25T01:10:32.304Z,12.90
2023-10-25T01:15:33.761Z,8.63
2023-10-25T01:20:35.192Z,8.98
2023-10-25T01:25:36.777Z,10.35
2023-10-25T01:30:38.428Z,7.43
2023-10-25T01:35:39.907Z,11.48
2023-10-25T01:40:41.305Z,8.43
2023-10-25T01:45:42.812Z,9.30
2023-10-25T01:50:44.304Z,8.35
2023-10-25T01:55:46.890Z,14.07
2023-10-25T02:00:48.402Z,20.20
2023-10-25T02:05:49.794Z,13.05
2023-10-25T02:10:51.169Z,11.73
2023-10-25T02:15:52.635Z,20.02
2023-10-25T02:20:54.008Z,19.75
2023-10-25T02:25:55.365Z,18.00
2023-10-25T02:30:56.766Z,18.88
2023-10-25T02:35:58.152Z,19.70
2023-10-25T02:40:59.525Z,21.38
2023-10-25T02:46:07.056Z,24.95
2023-10-25T02:51:08.621Z,23.65
2023-10-25T02:56:09.987Z,31.95
2023-10-25T03:01:21.901Z,30.67
2023-10-25T03:06:23.705Z,28.38
2023-10-25T03:11:25.172Z,29.42
2023-10-25T03:16:26.660Z,39.42
2023-10-25T03:21:28.248Z,33.10
2023-10-25T03:26:29.653Z,79.82
2023-10-25T03:31:31.135Z,95.10
2023-10-25T03:36:32.582Z,102.13
2023-10-25T03:41:34.096Z,105.25
2023-10-25T03:46:35.670Z,109.20
2023-10-25T03:51:37.147Z,142.32
2023-10-25T03:56:38.510Z,115.95
2023-10-25T04:01:40.302Z,58.65
2023-10-25T04:06:41.813Z,76.75
2023-10-25T04:11:43.201Z,132.80
2023-10-25T04:16:44.654Z,90.50
2023-10-25T04:21:46.148Z,94.18
2023-10-25T04:26:47.768Z,102.53
2023-10-25T04:31:49.222Z,67.95
2023-10-25T04:36:50.821Z,36.50
2023-10-25T04:41:52.256Z,35.95
2023-10-25T04:46:53.661Z,41.78
2023-10-25T04:51:55.370Z,45.33
2023-10-25T04:56:59.077Z,46.75
2023-10-25T05:02:00.517Z,57.42
2023-10-25T05:07:02.262Z,53.08
2023-10-25T05:12:08.038Z,55.97
2023-10-25T05:17:10.597Z,57.53
2023-10-25T05:22:14.652Z,46.85
2023-10-25T05:27:16.636Z,68.60
2023-10-25T05:32:20.582Z,39.90
2023-10-25T05:37:22.333Z,47.42
2023-10-25T05:42:28.290Z,43.03
2023-10-25T05:47:30.233Z,40.35
2023-10-25T05:52:31.990Z,38.45
2023-10-25T05:57:33.661Z,39.45
2023-10-25T06:02:35.454Z,35.60
2023-10-25T06:07:37.184Z,37.72
2023-10-25T06:12:41.828Z,31.70
2023-10-25T06:17:43.526Z,43.00
2023-10-25T06:22:44.917Z,31.80
2023-10-25T06:27:46.290Z,39.72
2023-10-25T06:32:47.745Z,35.17
2023-10-25T06:37:49.544Z,31.73
2023-10-25T06:42:53.758Z,43.17
2023-10-25T06:47:55.463Z,39.30
2023-10-25T06:52:57.302Z,39.95
2023-10-25T06:57:59.035Z,29.88
2023-10-25T07:03:04.127Z,37.10
2023-10-25T07:08:06.039Z,40.97
2023-10-25T07:13:07.564Z,48.47
2023-10-25T07:18:09.068Z,34.80
2023-10-25T07:23:10.515Z,37.85
2023-10-25T07:28:12.266Z,28.98
2023-10-25T07:33:14.294Z,34.55
2023-10-25T07:38:15.953Z,25.27
2023-10-25T07:43:17.425Z,15.35
2023-10-25T07:48:18.843Z,11.23
2023-10-25T07:53:20.228Z,10.45
2023-10-25T07:58:27.529Z,13.45
2023-10-25T08:03:30.458Z,10.60
2023-10-25T08:08:33.005Z,8.88
2023-10-25T08:13:36.053Z,8.35
2023-10-25T08:18:37.469Z,9.60
2023-10-25T08:23:39.389Z,9.07
2023-10-25T08:28:40.840Z,9.82
2023-10-25T08:33:42.349Z,8.23
2023-10-25T08:38:43.746Z,8.43
2023-10-25T08:43:45.224Z,12.98
2023-10-25T08:48:46.922Z,13.05
2023-10-25T08:53:51.302Z,11.82
2023-10-25T08:58:53.077Z,13.98
2023-10-25T09:03:54.649Z,11.38
2023-10-25T09:09:00.927Z,12.80
2023-10-25T09:14:02.345Z,10.77
2023-10-25T09:19:04.811Z,11.35
2023-10-25T09:24:10.301Z,11.82
2023-10-25T09:29:13.845Z,7.75
2023-10-25T09:34:16.260Z,9.43
2023-10-25T09:39:17.669Z,8.63
2023-10-25T09:44:23.553Z,8.90
2023-10-25T09:49:30.169Z,9.95
2023-10-25T09:54:34.130Z,7.50
2023-10-25T09:59:36.741Z,5.68
2023-10-25T10:04:50.941Z,7.53
2023-10-25T10:10:13.696Z,4.85
2023-10-25T10:15:15.719Z,3.55
2023-10-25T10:20:25.617Z,5.28
2023-10-25T10:25:46.592Z,7.13
2023-10-25T10:30:48.756Z,5.22
2023-10-25T10:35:50.355Z,5.57
2023-10-25T10:40:54.375Z,6.22
2023-10-25T10:45:55.833Z,6.82
2023-10-25T10:50:57.231Z,6.60
2023-10-25T10:55:58.721Z,6.00
2023-10-25T11:01:00.185Z,6.55
2023-10-25T11:06:04.559Z,7.05
2023-10-25T11:11:06.811Z,5.78
2023-10-25T11:16:10.062Z,7.70
2023-10-25T11:21:15.672Z,6.05
2023-10-25T11:26:17.472Z,6.40
2023-10-25T11:31:19.135Z,6.88
2023-10-25T11:36:20.552Z,5.68
2023-10-25T11:41:22.153Z,6.82
2023-10-25T11:46:25.173Z,6.95
2023-10-25T11:51:26.617Z,6.63
2023-10-25T11:56:28.337Z,6.05
2023-10-25T12:01:29.788Z,7.60
2023-10-25T12:06:31.398Z,5.95
2023-10-25T12:11:32.990Z,9.73
2023-10-25T12:16:34.378Z,4.22
2023-10-25T12:21:35.748Z,7.20
2023-10-25T12:26:37.138Z,6.47
2023-10-25T12:31:38.626Z,6.07
2023-10-25T12:36:40.153Z,7.45
2023-10-25T12:41:41.553Z,6.00
2023-10-25T12:46:44.834Z,5.45
2023-10-25T12:51:48.502Z,4.20
2023-10-25T12:56:50.006Z,6.03
2023-10-25T13:01:53.548Z,3.60
2023-10-25T13:06:55.489Z,5.28
2023-10-25T13:11:56.893Z,7.53
2023-10-25T13:17:12.649Z,12.30
2023-10-25T13:22:15.313Z,4.15
2023-10-25T13:27:16.816Z,4.25
2023-10-25T13:32:18.301Z,5.80
2023-10-25T13:37:19.827Z,4.75
2023-10-25T13:42:22.134Z,3.58
2023-10-25T13:47:23.619Z,7.35
2023-10-25T13:52:25.233Z,3.92
2023-10-25T13:57:26.643Z,5.35
2023-10-25T14:02:28.080Z,4.03
2023-10-25T14:07:29.527Z,2.88
2023-10-25T14:12:32.666Z,3.05
2023-10-25T14:17:34.112Z,4.93
2023-10-25T14:22:35.558Z,3.20
2023-10-25T14:27:38.565Z,4.15
2023-10-25T14:32:40.074Z,3.65
2023-10-25T14:37:42.465Z,1.88
2023-10-25T14:42:45.410Z,4.70
2023-10-25T14:47:47.021Z,2.45
2023-10-25T14:52:48.631Z,3.38
2023-10-25T14:57:50.019Z,2.70
2023-10-25T15:02:51.503Z,1.92
2023-10-25T15:07:54.225Z,4.82
2023-10-25T15:12:55.619Z,3.85
2023-10-25T15:17:57.190Z,2.47
2023-10-25T15:23:00.900Z,1.88
2023-10-25T15:28:04.594Z,3.50
2023-10-25T15:33:07.841Z,5.18
2023-10-25T15:38:09.219Z,2.95
2023-10-25T15:43:10.587Z,2.58
2023-10-25T15:48:12.057Z,1.58
2023-10-25T15:53:19.527Z,3.67
2023-10-25T15:58:21.308Z,1.88
2023-10-25T16:03:22.821Z,2.13
2023-10-25T16:08:24.363Z,1.30
2023-10-25T16:13:25.750Z,1.02
2023-10-25T16:18:27.237Z,1.52
2023-10-25T16:23:28.674Z,3.03
2023-10-25T16:28:30.065Z,2.10
2023-10-25T16:33:32.333Z,2.47
2023-10-25T16:38:34.268Z,1.92
2023-10-25T16:43:37.123Z,4.20
2023-10-25T16:48:42.113Z,4.60
2023-10-25T16:53:45.993Z,4.38
2023-10-25T16:58:47.700Z,5.53
2023-10-25T17:03:49.251Z,3.75
2023-10-25T17:08:50.874Z,7.28
2023-10-25T17:13:52.621Z,5.95
2023-10-25T17:18:54.261Z,4.78
2023-10-25T17:23:55.795Z,5.90
2023-10-25T17:28:57.763Z,5.03
2023-10-25T17:33:59.484Z,6.95
2023-10-25T17:39:01.179Z,7.22
2023-10-25T17:44:02.590Z,6.30
2023-10-25T17:49:04.069Z,5.38
2023-10-25T17:54:05.674Z,5.35
2023-10-25T17:59:07.111Z,4.20
2023-10-25T18:04:09.288Z,5.75
2023-10-25T18:09:10.827Z,3.80
2023-10-25T18:14:14.560Z,3.72
2023-10-25T18:19:18.359Z,5.38
2023-10-25T18:24:19.928Z,5.47
2023-10-25T18:29:21.724Z,4.80
2023-10-25T18:34:24.032Z,4.20
2023-10-25T18:39:28.275Z,3.00
2023-10-25T18:44:33.583Z,4.55
2023-10-25T18:49:35.578Z,3.65
2023-10-25T18:54:37.010Z,6.15
2023-10-25T18:59:38.827Z,4.35
2023-10-25T19:06:23.730Z,5.15
2023-10-25T19:10:29.743Z,2.35
2023-10-25T19:15:23.680Z,2.00
2023-10-25T19:20:27.051Z,1.77
2023-10-25T19:25:28.630Z,1.75
2023-10-25T19:30:31.162Z,1.73
2023-10-25T19:35:37.028Z,3.70
2023-10-25T19:40:38.743Z,5.28
2023-10-25T19:45:40.635Z,4.70
2023-10-25T19:50:42.183Z,4.38
2023-10-25T19:55:44.055Z,5.55
2023-10-25T20:00:45.606Z,8.07
2023-10-25T20:05:47.025Z,10.60
2023-10-25T20:10:48.975Z,7.32
2023-10-25T20:15:50.348Z,6.60
2023-10-25T20:20:51.838Z,6.15
2023-10-25T20:25:54.749Z,4.38
2023-10-25T20:30:56.174Z,10.13
2023-10-25T20:36:00.105Z,5.72
2023-10-25T20:41:08.649Z,9.40
2023-10-25T20:46:10.293Z,6.68
2023-10-25T20:51:11.768Z,9.57
2023-10-25T20:56:13.154Z,6.90
2023-10-25T21:01:14.594Z,6.68
2023-10-25T21:06:16.112Z,5.82
2023-10-25T21:11:17.569Z,6.07
2023-10-25T21:16:19.049Z,3.90
2023-10-25T21:21:20.562Z,3.67
2023-10-25T21:26:22.089Z,4.95
2023-10-25T21:31:23.874Z,3.50
2023-10-25T21:36:26.743Z,4.00
2023-10-25T21:41:28.211Z,3.97
2023-10-25T21:46:29.652Z,4.38
2023-10-25T21:51:31.114Z,3.55
2023-10-25T21:56:32.516Z,1.13
2023-10-25T22:01:33.933Z,1.23
2023-10-25T22:06:36.447Z,3.05
2023-10-25T22:11:38.596Z,1.85
2023-10-25T22:16:40.634Z,1.30
2023-10-25T22:21:43.011Z,0.40
2023-10-25T22:26:44.500Z,0.20
2023-10-25T22:31:46.311Z,0.80
2023-10-25T22:36:52.091Z,0.13
2023-10-25T22:41:55.412Z,0.20
2023-10-25T22:46:57.212Z,2.72
2023-10-25T22:51:58.697Z,1.85
2023-10-25T22:57:01.494Z,1.70
2023-10-25T23:02:04.444Z,1.90
2023-10-25T23:07:05.903Z,0.10
2023-10-25T23:12:07.776Z,0.20
2023-10-25T23:17:09.189Z,0.40
2023-10-25T23:22:10.722Z,1.20
2023-10-25T23:27:12.158Z,0.20
2023-10-25T23:32:13.623Z,2.42
2023-10-25T23:37:15.221Z,0.30
2023-10-25T23:42:16.631Z,0.10
2023-10-25T23:47:19.351Z,1.75
2023-10-25T23:52:20.764Z,0.40
2023-10-25T23:57:24.553Z,0.10
